Time;durP1;ratioP1;P1;durP2;ratioP2;P2;SDS_P1;SDS_P2;PMS_P1;PMS_P2;Temp;Humidity;BMP_temperature;BMP_pressure;BME280_temperature;BME280_humidity;BME280_pressure;Samples;Min_cycle;Max_cycle;Signal;HPM_P1;HPM_P2
2024/01/06 00:01:53;;;;;;;13.87;10.90;;;2.70;99.90;;;;;;5013292;28;20514;-80
2024/01/06 00:04:21;;;;;;;13.20;9.90;;;2.70;99.90;;;;;;5013308;28;20534;-79
2024/01/06 00:06:51;;;;;;;12.30;11.00;;;2.70;99.90;;;;;;5013581;28;20465;-79
2024/01/06 00:09:19;;;;;;;11.50;9.83;;;3.00;99.90;;;;;;5014256;28;20475;-80
2024/01/06 00:11:48;;;;;;;12.07;10.40;;;2.70;99.90;;;;;;5013764;28;20913;-79
2024/01/06 00:14:16;;;;;;;10.77;9.30;;;2.70;99.90;;;;;;5014136;28;20452;-80
2024/01/06 00:16:44;;;;;;;12.33;9.87;;;2.70;99.90;;;;;;5013979;28;20474;-79
2024/01/06 00:19:13;;;;;;;11.33;9.90;;;2.70;99.90;;;;;;5013826;28;20483;-80
2024/01/06 00:21:41;;;;;;;10.47;9.37;;;2.70;99.90;;;;;;5013893;28;20503;-80
2024/01/06 00:24:11;;;;;;;10.73;9.37;;;2.70;99.90;;;;;;5014020;28;20822;-79
2024/01/06 00:26:39;;;;;;;10.83;9.27;;;2.70;99.90;;;;;;5014901;28;20444;-79
2024/01/06 00:29:07;;;;;;;9.90;8.83;;;2.60;99.90;;;;;;5013434;28;20515;-80
2024/01/06 00:31:36;;;;;;;10.33;8.80;;;2.60;99.90;;;;;;5013607;28;20456;-80
2024/01/06 00:34:04;;;;;;;12.63;10.40;;;2.60;99.90;;;;;;5013290;28;20451;-79
2024/01/06 00:36:32;;;;;;;11.50;10.30;;;2.60;99.90;;;;;;5013442;28;20451;-79
2024/01/06 00:39:01;;;;;;;11.40;9.60;;;2.60;99.90;;;;;;5013323;28;20861;-79
2024/01/06 00:41:31;;;;;;;11.50;8.60;;;2.60;99.90;;;;;;5013265;28;20542;-80
2024/01/06 00:43:59;;;;;;;11.00;9.33;;;2.60;99.90;;;;;;5013662;28;20537;-79
2024/01/06 00:46:28;;;;;;;9.50;7.83;;;2.70;99.90;;;;;;5021014;28;20443;-80
2024/01/06 00:48:57;;;;;;;10.87;8.63;;;2.50;99.90;;;;;;5024920;28;20487;-80
2024/01/06 00:51:25;;;;;;;10.70;9.03;;;2.70;99.90;;;;;;5028972;28;20501;-80
2024/01/06 00:53:53;;;;;;;10.53;9.40;;;2.60;99.90;;;;;;5030105;28;20432;-81
2024/01/06 00:56:22;;;;;;;12.20;10.80;;;2.60;99.90;;;;;;5028006;28;21084;-80
2024/01/06 00:58:51;;;;;;;9.87;8.87;;;2.60;99.90;;;;;;5028124;28;20471;-80
2024/01/06 01:01:20;;;;;;;9.93;8.50;;;2.60;99.90;;;;;;5030453;28;20470;-80
2024/01/06 01:03:48;;;;;;;11.40;8.43;;;2.50;99.90;;;;;;5032889;28;20525;-79
2024/01/06 01:06:17;;;;;;;10.93;8.80;;;2.50;99.90;;;;;;5032560;28;20447;-81
2024/01/06 01:08:45;;;;;;;10.20;8.40;;;2.60;99.90;;;;;;5031186;28;20550;-80
2024/01/06 01:11:14;;;;;;;9.73;8.70;;;2.50;99.90;;;;;;5031015;28;20648;-80
2024/01/06 01:13:42;;;;;;;9.93;8.40;;;2.50;99.90;;;;;;5032014;28;20458;-80
2024/01/06 01:16:13;;;;;;;10.30;8.70;;;2.50;99.90;;;;;;5030405;28;20515;-80
2024/01/06 01:18:44;;;;;;;9.90;8.73;;;2.50;99.90;;;;;;5030571;28;20462;-80
2024/01/06 01:21:13;;;;;;;10.27;8.20;;;2.50;99.90;;;;;;5030191;28;20443;-80
2024/01/06 01:23:41;;;;;;;12.30;9.73;;;2.50;99.90;;;;;;5031551;28;20476;-80
2024/01/06 01:26:10;;;;;;;9.80;7.83;;;2.50;99.90;;;;;;5030607;28;20819;-80
2024/01/06 01:28:39;;;;;;;9.40;7.87;;;2.50;99.90;;;;;;5029356;28;20968;-80
2024/01/06 01:31:08;;;;;;;9.90;7.87;;;2.50;99.90;;;;;;5029368;28;20498;-80
2024/01/06 01:33:38;;;;;;;11.63;8.43;;;2.50;99.90;;;;;;5028934;28;20459;-80
2024/01/06 01:36:07;;;;;;;8.97;7.90;;;2.40;99.90;;;;;;5029236;28;20459;-80
2024/01/06 01:38:35;;;;;;;10.30;8.50;;;2.40;99.90;;;;;;5028293;28;20456;-80
2024/01/06 01:41:04;;;;;;;9.67;8.20;;;2.40;99.90;;;;;;5027920;28;20451;-80
2024/01/06 01:43:32;;;;;;;9.00;7.70;;;2.40;99.90;;;;;;5027568;28;20472;-80
2024/01/06 01:46:01;;;;;;;9.97;8.23;;;2.40;99.90;;;;;;5027786;28;20451;-79
2024/01/06 01:48:30;;;;;;;9.47;8.47;;;2.40;99.90;;;;;;5028422;28;20550;-80
2024/01/06 01:51:00;;;;;;;10.10;7.97;;;2.40;99.90;;;;;;5026822;28;20448;-80
2024/01/06 01:53:29;;;;;;;12.20;9.30;;;2.40;99.90;;;;;;5027072;28;20455;-80
2024/01/06 01:55:59;;;;;;;12.17;9.07;;;2.40;99.90;;;;;;5026871;28;20443;-79
2024/01/06 01:58:28;;;;;;;11.67;9.00;;;2.40;99.90;;;;;;5026430;28;20482;-80
2024/01/06 02:00:56;;;;;;;10.57;9.33;;;2.40;99.90;;;;;;5026324;28;20448;-80
2024/01/06 02:03:26;;;;;;;10.97;8.90;;;2.40;99.90;;;;;;5025925;28;20538;-79
2024/01/06 02:05:55;;;;;;;9.60;8.10;;;2.40;99.90;;;;;;5026365;28;20452;-80
2024/01/06 02:08:24;;;;;;;11.47;8.93;;;2.30;99.90;;;;;;5025111;28;20451;-80
2024/01/06 02:10:55;;;;;;;9.53;8.00;;;2.30;99.90;;;;;;5024939;28;20444;-80
2024/01/06 02:13:24;;;;;;;11.70;9.23;;;2.20;99.90;;;;;;5025744;28;20477;-80
2024/01/06 02:15:53;;;;;;;10.00;8.90;;;2.30;99.90;;;;;;5025676;28;20448;-80
2024/01/06 02:18:22;;;;;;;9.73;8.73;;;2.30;99.90;;;;;;5027649;28;20451;-80
2024/01/06 02:20:52;;;;;;;10.07;8.00;;;2.30;99.90;;;;;;5023891;28;20448;-81
2024/01/06 02:23:22;;;;;;;9.90;8.60;;;2.30;99.90;;;;;;5026298;28;20783;-80
2024/01/06 02:25:51;;;;;;;11.30;9.07;;;2.30;99.90;;;;;;5023515;28;20447;-80
2024/01/06 02:28:19;;;;;;;10.33;8.43;;;2.30;99.90;;;;;;5023647;28;20478;-80
2024/01/06 02:30:48;;;;;;;9.50;8.33;;;2.30;99.90;;;;;;5023644;28;20519;-80
2024/01/06 02:33:16;;;;;;;11.50;8.43;;;2.20;99.90;;;;;;5025164;28;20447;-81
2024/01/06 02:35:45;;;;;;;10.50;8.90;;;2.20;99.90;;;;;;5024520;28;20451;-80
2024/01/06 02:38:13;;;;;;;9.13;7.43;;;2.20;99.90;;;;;;5025068;28;20483;-80
2024/01/06 02:40:43;;;;;;;10.47;8.87;;;2.20;99.90;;;;;;5025372;28;20470;-80
2024/01/06 02:43:12;;;;;;;9.53;8.53;;;2.30;99.90;;;;;;5024586;28;20467;-80
2024/01/06 02:45:41;;;;;;;11.40;9.83;;;2.20;99.90;;;;;;5024521;28;20475;-80
2024/01/06 02:48:09;;;;;;;11.07;9.93;;;2.20;99.90;;;;;;5025161;28;20448;-80
2024/01/06 02:50:37;;;;;;;13.87;10.93;;;2.20;99.90;;;;;;5025326;28;20514;-80
2024/01/06 02:53:06;;;;;;;12.67;11.00;;;2.20;99.90;;;;;;5024442;28;20532;-80
2024/01/06 02:55:34;;;;;;;13.33;10.00;;;2.20;99.90;;;;;;5024940;28;20459;-80
2024/01/06 02:58:04;;;;;;;11.40;10.10;;;2.20;99.90;;;;;;5025278;28;20472;-79
2024/01/06 03:00:33;;;;;;;11.97;10.50;;;2.20;99.90;;;;;;5027596;28;20554;-80
2024/01/06 03:03:02;;;;;;;13.63;11.10;;;2.20;99.90;;;;;;5025026;28;20455;-80
2024/01/06 03:05:31;;;;;;;11.53;10.10;;;2.20;99.90;;;;;;5024167;28;20479;-80
2024/01/06 03:07:59;;;;;;;11.20;9.93;;;2.20;99.90;;;;;;5023889;28;21044;-79
2024/01/06 03:10:28;;;;;;;13.37;11.40;;;2.10;99.90;;;;;;5024026;28;20525;-80
2024/01/06 03:12:56;;;;;;;12.03;9.37;;;2.10;99.90;;;;;;5024798;28;20465;-80
2024/01/06 03:15:26;;;;;;;11.40;9.90;;;2.10;99.90;;;;;;5025265;28;20962;-80
2024/01/06 03:17:55;;;;;;;12.27;9.87;;;2.10;99.90;;;;;;5024808;28;20510;-79
2024/01/06 03:20:23;;;;;;;10.77;9.67;;;2.10;99.90;;;;;;5024646;28;20475;-80
2024/01/06 03:22:52;;;;;;;11.93;10.37;;;2.10;99.90;;;;;;5022996;28;20817;-80
2024/01/06 03:25:20;;;;;;;11.40;9.67;;;2.00;99.90;;;;;;5024542;28;20471;-79
2024/01/06 03:27:49;;;;;;;11.40;9.77;;;2.00;99.90;;;;;;5025026;28;20464;-80
2024/01/06 03:30:18;;;;;;;11.00;9.90;;;2.00;99.90;;;;;;5023867;28;20486;-79
2024/01/06 03:32:47;;;;;;;12.00;9.50;;;2.00;99.90;;;;;;5023705;28;20455;-81
2024/01/06 03:35:16;;;;;;;12.40;10.00;;;2.00;99.90;;;;;;5025227;28;20451;-81
2024/01/06 03:37:44;;;;;;;10.17;9.07;;;2.00;99.90;;;;;;5025933;28;20459;-81
2024/01/06 03:40:13;;;;;;;11.90;10.40;;;2.00;99.90;;;;;;5026764;28;20922;-81
2024/01/06 03:42:42;;;;;;;12.27;11.07;;;2.00;99.90;;;;;;5029697;28;20467;-81
2024/01/06 03:45:10;;;;;;;11.23;9.90;;;2.00;99.90;;;;;;5027195;28;20556;-81
2024/01/06 03:47:39;;;;;;;11.87;10.50;;;2.00;99.90;;;;;;5027816;28;20457;-80
2024/01/06 03:50:09;;;;;;;11.53;9.63;;;1.90;99.90;;;;;;5026655;28;20481;-81
2024/01/06 03:52:38;;;;;;;11.50;10.30;;;1.90;99.90;;;;;;5026879;28;20451;-81
2024/01/06 03:55:07;;;;;;;11.17;9.77;;;1.90;99.90;;;;;;5026554;28;20472;-81
2024/01/06 03:57:36;;;;;;;12.17;10.50;;;1.90;99.90;;;;;;5025994;28;20470;-81
2024/01/06 04:00:06;;;;;;;12.40;9.93;;;1.90;99.90;;;;;;5026975;28;20463;-81
2024/01/06 04:02:34;;;;;;;12.47;9.50;;;1.90;99.90;;;;;;5025683;28;20450;-81
2024/01/06 04:05:04;;;;;;;11.73;10.50;;;1.90;99.90;;;;;;5026416;28;20494;-80
2024/01/06 04:07:34;;;;;;;11.23;9.93;;;1.90;99.90;;;;;;5025500;28;20537;-80
2024/01/06 04:10:03;;;;;;;11.83;10.63;;;1.90;99.90;;;;;;5025947;28;20464;-80
2024/01/06 04:12:32;;;;;;;13.00;10.27;;;1.90;99.90;;;;;;5024875;28;20451;-81
2024/01/06 04:15:00;;;;;;;10.10;8.57;;;1.90;99.90;;;;;;5024526;28;20894;-80
2024/01/06 04:17:29;;;;;;;12.90;10.90;;;1.80;99.90;;;;;;5025087;28;20481;-80
2024/01/06 04:19:57;;;;;;;12.97;10.60;;;1.90;99.90;;;;;;5025289;28;20558;-81
2024/01/06 04:22:26;;;;;;;11.90;10.70;;;1.90;99.90;;;;;;5024739;28;20527;-80
2024/01/06 04:24:55;;;;;;;11.30;9.70;;;1.90;99.90;;;;;;5025332;28;20465;-81
2024/01/06 04:27:24;;;;;;;11.77;10.50;;;1.90;99.90;;;;;;5024235;28;20511;-80
2024/01/06 04:29:53;;;;;;;11.33;10.03;;;1.90;99.90;;;;;;5024510;28;20995;-80
2024/01/06 04:32:21;;;;;;;13.37;10.57;;;1.90;99.90;;;;;;5024359;28;20449;-81
2024/01/06 04:34:50;;;;;;;11.40;10.20;;;2.00;99.90;;;;;;5026297;28;20448;-79
2024/01/06 04:37:18;;;;;;;12.20;10.00;;;1.90;99.90;;;;;;5027846;28;20443;-80
2024/01/06 04:39:46;;;;;;;10.90;9.73;;;1.90;99.90;;;;;;5027892;28;20478;-79
2024/01/06 04:42:16;;;;;;;12.50;9.93;;;1.90;99.90;;;;;;5027670;28;20466;-79
2024/01/06 04:44:45;;;;;;;13.23;11.43;;;1.90;99.90;;;;;;5027292;28;20450;-79
2024/01/06 04:47:13;;;;;;;11.47;9.73;;;1.90;99.90;;;;;;5026095;28;20952;-80
2024/01/06 04:49:42;;;;;;;12.10;9.87;;;1.90;99.90;;;;;;5026085;28;20467;-80
2024/01/06 04:52:11;;;;;;;10.97;9.13;;;1.90;99.90;;;;;;5026533;28;20871;-80
2024/01/06 04:54:39;;;;;;;10.03;9.03;;;1.90;99.90;;;;;;5028818;28;20477;-79
2024/01/06 04:57:08;;;;;;;11.23;10.07;;;1.90;99.90;;;;;;5025284;28;20456;-80
2024/01/06 04:59:38;;;;;;;12.43;9.27;;;1.90;99.90;;;;;;5027907;28;20494;-80
2024/01/06 05:02:07;;;;;;;11.10;9.90;;;1.90;99.90;;;;;;5025717;28;20457;-80
2024/01/06 05:04:35;;;;;;;10.27;9.17;;;1.90;99.90;;;;;;5026037;28;20455;-79
2024/01/06 05:07:04;;;;;;;10.00;8.50;;;1.90;99.90;;;;;;5027975;28;20476;-79
2024/01/06 05:09:32;;;;;;;10.90;8.90;;;1.90;99.90;;;;;;5023779;28;20486;-80
2024/01/06 05:12:01;;;;;;;13.00;9.70;;;1.90;99.90;;;;;;5023331;28;20476;-80
2024/01/06 05:14:29;;;;;;;10.77;9.10;;;1.90;99.90;;;;;;5023524;28;20505;-80
2024/01/06 05:16:59;;;;;;;11.73;10.50;;;1.90;99.90;;;;;;5023867;28;20857;-80
2024/01/06 05:19:28;;;;;;;10.80;9.67;;;1.90;99.90;;;;;;5024096;28;20479;-79
2024/01/06 05:21:57;;;;;;;11.80;8.90;;;1.90;99.90;;;;;;5023808;28;20795;-80
2024/01/06 05:24:25;;;;;;;11.90;10.17;;;1.90;99.90;;;;;;5022987;28;20444;-81
2024/01/06 05:26:53;;;;;;;12.67;10.07;;;1.90;99.90;;;;;;5023517;28;20501;-80
2024/01/06 05:29:22;;;;;;;11.53;10.33;;;1.90;99.90;;;;;;5022607;28;20524;-80
2024/01/06 05:31:50;;;;;;;11.70;10.30;;;1.90;99.90;;;;;;5022053;28;20459;-81
2024/01/06 05:34:20;;;;;;;13.23;10.67;;;1.90;99.90;;;;;;5022562;28;20444;-79
2024/01/06 05:36:49;;;;;;;12.10;10.60;;;1.90;99.90;;;;;;5024400;28;20553;-80
2024/01/06 05:39:18;;;;;;;11.27;10.07;;;1.90;99.90;;;;;;5021802;28;20842;-80
2024/01/06 05:41:46;;;;;;;13.77;11.23;;;1.90;99.90;;;;;;5022179;28;20557;-80
2024/01/06 05:44:14;;;;;;;11.97;10.17;;;2.00;99.90;;;;;;5023783;28;20462;-80
2024/01/06 05:46:43;;;;;;;12.70;10.33;;;1.90;99.90;;;;;;5022254;28;20557;-80
2024/01/06 05:49:11;;;;;;;11.10;9.70;;;1.90;99.90;;;;;;5023109;28;20474;-80
2024/01/06 05:51:46;;;;;;;11.77;10.10;;;1.90;99.90;;;;;;5020531;28;20824;-80
2024/01/06 05:54:15;;;;;;;12.07;9.80;;;1.90;99.90;;;;;;5020280;28;20450;-81
2024/01/06 05:56:43;;;;;;;11.17;9.33;;;1.90;99.90;;;;;;5020107;28;20450;-81
2024/01/06 05:59:12;;;;;;;11.67;9.83;;;1.90;99.90;;;;;;5019785;28;20470;-81
2024/01/06 06:01:40;;;;;;;10.97;9.87;;;1.90;99.90;;;;;;5019326;28;20512;-81
2024/01/06 06:04:09;;;;;;;13.03;11.60;;;1.90;99.90;;;;;;5019999;28;20980;-82
2024/01/06 06:06:38;;;;;;;14.27;11.20;;;1.90;99.90;;;;;;5018606;28;21055;-80
2024/01/06 06:09:10;;;;;;;11.50;10.30;;;1.90;99.90;;;;;;5018932;28;20501;-81
2024/01/06 06:11:38;;;;;;;12.03;10.33;;;1.80;99.90;;;;;;5020859;28;20442;-81
2024/01/06 06:14:07;;;;;;;12.50;11.03;;;1.90;99.90;;;;;;5019621;28;20481;-82
2024/01/06 06:16:35;;;;;;;12.63;10.50;;;1.80;99.90;;;;;;5027889;28;20461;-81
2024/01/06 06:19:04;;;;;;;13.30;11.00;;;1.80;99.90;;;;;;5032096;28;20510;-81
2024/01/06 06:21:33;;;;;;;11.03;9.23;;;1.80;99.90;;;;;;5031316;28;20459;-81
2024/01/06 06:24:01;;;;;;;12.47;11.17;;;1.80;99.90;;;;;;5031089;28;20448;-82
2024/01/06 06:26:32;;;;;;;12.20;10.30;;;1.80;99.90;;;;;;5030569;28;20478;-81
2024/01/06 06:29:01;;;;;;;11.87;9.83;;;1.70;99.90;;;;;;5029835;28;20464;-81
2024/01/06 06:31:29;;;;;;;11.73;10.53;;;1.80;99.90;;;;;;5029755;28;20477;-81
2024/01/06 06:33:58;;;;;;;12.63;10.63;;;1.70;99.90;;;;;;5028715;28;20456;-81
2024/01/06 06:36:27;;;;;;;12.07;10.60;;;1.70;99.90;;;;;;5032317;28;20464;-81
2024/01/06 06:38:57;;;;;;;12.70;10.67;;;1.70;99.90;;;;;;5032305;28;20493;-81
2024/01/06 06:41:26;;;;;;;13.77;11.97;;;1.70;99.90;;;;;;5031972;28;20450;-81
2024/01/06 06:43:56;;;;;;;11.93;9.83;;;1.70;99.90;;;;;;5032889;28;20442;-81
2024/01/06 06:46:24;;;;;;;9.57;8.50;;;1.70;99.90;;;;;;5031375;28;20472;-82
2024/01/06 06:48:52;;;;;;;12.43;11.07;;;1.60;99.90;;;;;;5030516;28;20463;-81
2024/01/06 06:51:24;;;;;;;13.33;11.80;;;1.70;99.90;;;;;;5030333;28;20544;-81
2024/01/06 06:53:53;;;;;;;15.20;12.90;;;1.70;99.90;;;;;;5030060;28;20799;-81
2024/01/06 06:56:22;;;;;;;14.50;11.87;;;1.70;99.90;;;;;;5029652;28;20459;-80
2024/01/06 06:58:50;;;;;;;13.97;11.33;;;1.60;99.90;;;;;;5029134;28;20834;-80
2024/01/06 07:01:20;;;;;;;13.23;11.83;;;1.60;99.90;;;;;;5029441;28;20455;-81
2024/01/06 07:03:48;;;;;;;14.53;12.40;;;1.60;99.90;;;;;;5029327;28;20447;-80
2024/01/06 07:06:17;;;;;;;13.10;11.20;;;1.60;99.90;;;;;;5028319;28;20468;-81
2024/01/06 07:08:45;;;;;;;15.80;14.20;;;1.60;99.90;;;;;;5029537;28;20556;-81
2024/01/06 07:11:15;;;;;;;15.67;12.70;;;1.60;99.90;;;;;;5028361;28;20862;-81
2024/01/06 07:13:43;;;;;;;14.50;11.90;;;1.60;99.90;;;;;;5027264;28;20468;-81
2024/01/06 07:16:12;;;;;;;15.33;13.63;;;1.60;99.90;;;;;;5027285;28;20455;-81
2024/01/06 07:18:48;;;;;;;15.67;13.00;;;1.50;99.90;;;;;;5027429;28;20488;-81
2024/01/06 07:21:17;;;;;;;16.30;13.83;;;1.50;99.90;;;;;;5028193;28;20476;-80
2024/01/06 07:23:46;;;;;;;15.03;12.40;;;1.50;99.90;;;;;;5028228;28;20502;-81
2024/01/06 07:26:14;;;;;;;15.03;13.43;;;1.50;99.90;;;;;;5026333;28;20527;-81
2024/01/06 07:28:43;;;;;;;15.53;12.60;;;1.50;99.90;;;;;;5026528;28;20526;-80
2024/01/06 07:31:11;;;;;;;14.10;12.60;;;1.50;99.90;;;;;;5025549;28;20444;-80
2024/01/06 07:33:40;;;;;;;14.13;12.37;;;1.50;99.90;;;;;;5026167;28;20446;-80
2024/01/06 07:36:10;;;;;;;16.98;14.65;;;1.40;99.90;;;;;;5023565;28;20461;-80
2024/01/06 07:38:39;;;;;;;17.20;15.47;;;1.50;99.90;;;;;;5025455;28;20233;-81
2024/01/06 07:41:08;;;;;;;15.43;13.73;;;1.50;99.90;;;;;;5024791;28;20827;-80
2024/01/06 07:43:36;;;;;;;14.30;12.70;;;1.50;99.90;;;;;;5026680;28;20452;-80
2024/01/06 07:46:06;;;;;;;14.10;12.67;;;1.50;99.90;;;;;;5024552;28;20475;-80
2024/01/06 07:48:35;;;;;;;17.40;14.10;;;1.50;99.90;;;;;;5027204;28;20451;-80
2024/01/06 07:51:05;;;;;;;17.40;14.23;;;1.40;99.90;;;;;;5027192;28;20451;-80
2024/01/06 07:53:35;;;;;;;15.43;13.63;;;1.40;99.90;;;;;;5024165;28;20481;-80
2024/01/06 07:56:04;;;;;;;16.40;13.80;;;1.40;99.90;;;;;;5023455;28;20863;-80
2024/01/06 07:58:33;;;;;;;16.20;14.10;;;1.40;99.90;;;;;;5023836;28;20482;-80
2024/01/06 08:01:02;;;;;;;17.87;14.40;;;1.40;99.90;;;;;;5024194;28;20452;-80
2024/01/06 08:03:31;;;;;;;17.77;14.10;;;1.40;99.90;;;;;;5023955;28;20455;-80
2024/01/06 08:06:01;;;;;;;16.20;13.33;;;1.40;99.90;;;;;;5022974;28;20466;-80
2024/01/06 08:08:30;;;;;;;16.10;13.80;;;1.40;99.90;;;;;;5022975;28;20478;-80
2024/01/06 08:10:59;;;;;;;17.50;13.87;;;1.40;99.90;;;;;;5023382;28;20442;-81
2024/01/06 08:13:28;;;;;;;16.03;13.40;;;1.40;99.90;;;;;;5021392;28;20457;-80
2024/01/06 08:15:56;;;;;;;17.67;14.47;;;1.40;99.90;;;;;;5021498;28;20447;-82
2024/01/06 08:18:39;;;;;;;17.63;14.00;;;1.40;99.90;;;;;;5004576;28;20465;-81
2024/01/06 08:21:08;;;;;;;18.07;13.90;;;1.40;99.90;;;;;;5020622;28;20467;-80
2024/01/06 08:23:37;;;;;;;17.27;14.67;;;1.40;99.90;;;;;;5021111;28;20481;-81
2024/01/06 08:26:07;;;;;;;15.97;13.87;;;1.40;99.90;;;;;;5022182;28;20436;-81
2024/01/06 08:28:40;;;;;;;18.50;14.30;;;1.40;99.90;;;;;;5021221;28;20473;-81
2024/01/06 08:31:09;;;;;;;17.03;15.23;;;1.40;99.90;;;;;;5021089;28;20458;-81
2024/01/06 08:33:37;;;;;;;19.87;14.73;;;1.40;99.90;;;;;;5021114;28;20482;-81
2024/01/06 08:36:07;;;;;;;16.83;13.33;;;1.40;99.90;;;;;;5021028;28;20495;-81
2024/01/06 08:38:35;;;;;;;18.27;14.03;;;1.40;99.90;;;;;;5022284;28;20448;-81
2024/01/06 08:41:06;;;;;;;20.10;15.30;;;1.40;99.90;;;;;;5021361;28;20549;-80
2024/01/06 08:43:40;;;;;;;19.07;16.17;;;1.40;99.90;;;;;;5021535;28;21010;-81
2024/01/06 08:46:09;;;;;;;19.40;16.03;;;1.30;99.90;;;;;;5021378;28;20457;-81
2024/01/06 08:48:38;;;;;;;18.70;15.37;;;1.30;99.90;;;;;;5021226;28;20811;-81
2024/01/06 08:51:06;;;;;;;18.70;16.00;;;1.30;99.90;;;;;;5021468;28;20450;-80
2024/01/06 08:53:35;;;;;;;17.77;15.40;;;1.30;99.90;;;;;;5021781;28;20883;-81
2024/01/06 08:56:03;;;;;;;21.20;17.40;;;1.40;99.90;;;;;;5021402;28;20499;-81
2024/01/06 08:58:33;;;;;;;18.63;15.90;;;1.30;99.90;;;;;;5020589;28;20955;-80
2024/01/06 09:01:02;;;;;;;19.77;15.63;;;1.30;99.90;;;;;;5021117;28;20449;-81
2024/01/06 09:03:31;;;;;;;18.70;16.03;;;1.30;99.90;;;;;;5020604;28;20458;-81
2024/01/06 09:06:00;;;;;;;19.90;16.80;;;1.30;99.90;;;;;;5020542;28;20473;-80
2024/01/06 09:08:28;;;;;;;23.77;19.57;;;1.30;99.90;;;;;;5020482;28;20473;-80
2024/01/06 09:10:58;;;;;;;21.83;17.83;;;1.30;99.90;;;;;;5020240;28;20499;-81
2024/01/06 09:13:26;;;;;;;22.80;17.93;;;1.30;99.90;;;;;;5019999;28;20559;-81
2024/01/06 09:15:56;;;;;;;19.97;17.57;;;1.30;99.90;;;;;;5020413;28;20480;-81
2024/01/06 09:18:29;;;;;;;21.07;17.13;;;1.30;99.90;;;;;;5024437;28;20461;-81
2024/01/06 09:20:58;;;;;;;21.20;18.20;;;1.30;99.90;;;;;;5026102;28;20527;-81
2024/01/06 09:23:26;;;;;;;21.77;18.10;;;1.30;99.90;;;;;;5026573;28;20824;-81
2024/01/06 09:25:55;;;;;;;23.40;19.13;;;1.30;99.90;;;;;;5025332;28;20553;-82
2024/01/06 09:28:23;;;;;;;22.37;18.00;;;1.30;99.90;;;;;;5025213;28;20469;-81
2024/01/06 09:30:54;;;;;;;23.30;19.40;;;1.30;99.90;;;;;;5025248;28;20456;-83
2024/01/06 09:33:24;;;;;;;22.73;18.57;;;1.30;99.90;;;;;;5024131;28;20453;-82
2024/01/06 09:35:53;;;;;;;22.37;19.80;;;1.30;99.90;;;;;;5023880;28;20516;-81
2024/01/06 09:38:22;;;;;;;23.97;19.90;;;1.30;99.90;;;;;;5025355;28;20449;-82
2024/01/06 09:40:50;;;;;;;31.10;24.90;;;1.30;99.90;;;;;;5025469;28;20958;-81
2024/01/06 09:43:19;;;;;;;25.57;21.13;;;1.30;99.90;;;;;;5023110;28;21039;-81
2024/01/06 09:45:54;;;;;;;25.07;22.07;;;1.30;99.90;;;;;;5022961;28;20521;-82
2024/01/06 09:48:29;;;;;;;28.63;23.00;;;1.30;99.90;;;;;;5022753;28;20513;-81
2024/01/06 09:51:03;;;;;;;46.93;34.50;;;1.30;99.90;;;;;;5022703;28;20446;-82
2024/01/06 09:53:36;;;;;;;27.93;22.63;;;1.30;99.90;;;;;;5023622;28;20487;-81
2024/01/06 09:56:06;;;;;;;24.00;19.40;;;1.30;99.90;;;;;;5023969;28;20451;-82
2024/01/06 09:58:37;;;;;;;22.97;19.07;;;1.30;99.90;;;;;;5023959;28;20461;-82
2024/01/06 10:01:08;;;;;;;22.87;18.23;;;1.30;99.90;;;;;;5024319;28;20465;-82
2024/01/06 10:03:39;;;;;;;22.97;19.00;;;1.30;99.90;;;;;;5022907;28;20447;-82
2024/01/06 10:06:09;;;;;;;25.30;19.93;;;1.30;99.90;;;;;;5024610;28;20461;-81
2024/01/06 10:08:40;;;;;;;23.67;19.80;;;1.30;99.90;;;;;;5029125;28;20468;-81
2024/01/06 10:11:09;;;;;;;24.70;19.03;;;1.30;99.90;;;;;;5028431;28;20509;-81
2024/01/06 10:13:38;;;;;;;26.00;21.40;;;1.20;99.90;;;;;;5027860;28;20553;-81
2024/01/06 10:16:07;;;;;;;24.60;19.00;;;1.30;99.90;;;;;;5021572;28;20462;-82
2024/01/06 10:18:36;;;;;;;23.57;19.43;;;1.30;99.90;;;;;;5022929;28;20461;-81
2024/01/06 10:21:07;;;;;;;23.70;18.70;;;1.30;99.90;;;;;;5022137;28;20460;-82
2024/01/06 10:23:36;;;;;;;23.77;19.47;;;1.30;99.90;;;;;;5021282;28;20446;-81
2024/01/06 10:26:05;;;;;;;23.07;19.47;;;1.30;99.90;;;;;;5021047;28;20461;-81
2024/01/06 10:28:33;;;;;;;23.60;20.00;;;1.30;99.90;;;;;;5020374;28;20833;-81
2024/01/06 10:31:02;;;;;;;21.80;17.53;;;1.40;99.90;;;;;;5021234;28;20461;-81
2024/01/06 10:33:34;;;;;;;22.13;18.90;;;1.40;99.90;;;;;;5020336;28;20462;-82
2024/01/06 10:36:04;;;;;;;24.83;19.33;;;1.40;99.90;;;;;;5027129;28;20482;-82
2024/01/06 10:38:37;;;;;;;23.27;19.10;;;1.40;99.90;;;;;;5022948;28;20445;-81
2024/01/06 10:41:07;;;;;;;22.87;19.10;;;1.40;99.90;;;;;;5023912;28;20448;-80
2024/01/06 10:43:40;;;;;;;23.70;19.73;;;1.30;99.90;;;;;;5025678;28;20452;-81
2024/01/06 10:46:10;;;;;;;21.80;18.77;;;1.30;99.90;;;;;;5020526;28;20505;-81
2024/01/06 10:48:42;;;;;;;26.60;20.13;;;1.30;99.90;;;;;;5020870;28;20473;-81
2024/01/06 10:51:13;;;;;;;26.53;20.53;;;1.30;99.90;;;;;;5020982;28;20454;-81
2024/01/06 10:53:44;;;;;;;24.17;20.50;;;1.30;99.90;;;;;;5020648;28;20436;-80
2024/01/06 10:56:13;;;;;;;26.30;21.07;;;1.30;99.90;;;;;;5020931;28;20497;-80
2024/01/06 10:58:48;;;;;;;25.00;20.30;;;1.30;99.90;;;;;;5020883;28;20448;-80
2024/01/06 11:01:19;;;;;;;24.33;19.93;;;1.30;99.90;;;;;;5021476;28;20447;-80
2024/01/06 11:03:50;;;;;;;24.43;19.50;;;1.30;99.90;;;;;;5020607;28;20471;-80
2024/01/06 11:06:19;;;;;;;24.67;21.23;;;1.30;99.90;;;;;;5026847;28;20476;-80
2024/01/06 11:08:53;;;;;;;19.33;16.37;;;1.30;99.90;;;;;;5026054;28;20490;-80
2024/01/06 11:11:23;;;;;;;24.37;19.80;;;1.20;99.90;;;;;;5024688;28;20422;-80
2024/01/06 11:13:52;;;;;;;26.97;21.00;;;1.30;99.90;;;;;;5022554;28;20449;-80
2024/01/06 11:16:37;;;;;;;25.50;21.03;;;1.40;99.90;;;;;;5029976;28;20488;-81
2024/01/06 11:19:54;;;;;;;24.27;20.33;;;1.30;99.90;;;;;;5020346;28;20503;-80
2024/01/06 11:22:28;;;;;;;24.50;19.30;;;1.30;99.90;;;;;;5023211;28;20472;-80
2024/01/06 11:25:05;;;;;;;24.73;21.93;;;1.30;99.90;;;;;;5022066;28;20428;-81
2024/01/06 11:27:35;;;;;;;27.90;20.70;;;1.30;99.90;;;;;;5019976;28;20498;-80
2024/01/06 11:30:05;;;;;;;26.57;20.80;;;1.20;99.90;;;;;;5017944;28;20547;-80
2024/01/06 11:32:38;;;;;;;26.33;21.43;;;1.20;99.90;;;;;;5018140;28;20493;-81
2024/01/06 11:35:09;;;;;;;29.83;23.43;;;1.20;99.90;;;;;;5017712;28;20453;-80
2024/01/06 11:37:52;;;;;;;27.07;21.83;;;1.20;99.90;;;;;;5017897;28;20446;-80
2024/01/06 11:40:32;;;;;;;27.93;21.40;;;1.20;99.90;;;;;;5029218;28;20478;-81
2024/01/06 11:43:03;;;;;;;27.23;22.03;;;1.20;99.90;;;;;;5030403;28;20880;-81
2024/01/06 11:45:32;;;;;;;29.67;20.87;;;1.20;99.90;;;;;;5031343;28;20427;-81
2024/01/06 11:48:02;;;;;;;26.40;21.20;;;1.30;99.90;;;;;;5030147;28;20461;-81
2024/01/06 11:50:32;;;;;;;29.95;26.80;;;1.20;99.90;;;;;;5029297;28;20453;-80
2024/01/06 11:53:00;;;;;;;27.40;24.60;;;1.30;99.90;;;;;;5029604;28;20200;-80
2024/01/06 11:55:31;;;;;;;27.93;24.80;;;1.30;99.90;;;;;;5029833;28;20460;-81
2024/01/06 11:58:02;;;;;;;25.70;20.73;;;1.30;99.90;;;;;;5028526;28;20465;-81
2024/01/06 12:00:32;;;;;;;28.20;21.20;;;1.30;99.90;;;;;;5028081;28;20478;-81
2024/01/06 12:03:02;;;;;;;25.50;21.30;;;1.30;99.90;;;;;;5029397;28;20455;-80
2024/01/06 12:05:31;;;;;;;25.80;20.37;;;1.30;99.90;;;;;;5030201;28;20461;-80
2024/01/06 12:08:01;;;;;;;26.13;21.37;;;1.30;99.90;;;;;;5030236;28;20928;-80
2024/01/06 12:10:32;;;;;;;25.37;22.10;;;1.20;99.90;;;;;;5027782;28;20499;-80
2024/01/06 12:13:02;;;;;;;28.20;20.70;;;1.20;99.90;;;;;;5027120;28;20823;-81
2024/01/06 12:15:32;;;;;;;29.60;22.37;;;1.30;99.90;;;;;;5027329;28;20949;-81
2024/01/06 12:18:04;;;;;;;29.73;21.03;;;1.20;99.90;;;;;;5026502;28;20462;-80
2024/01/06 12:20:33;;;;;;;26.70;22.20;;;1.20;99.90;;;;;;5026725;28;20878;-81
2024/01/06 12:23:05;;;;;;;28.27;22.63;;;1.30;99.90;;;;;;5026452;28;20813;-80
2024/01/06 12:25:36;;;;;;;30.03;22.13;;;1.20;99.90;;;;;;5026984;28;20467;-80
2024/01/06 12:28:10;;;;;;;28.83;22.00;;;1.20;99.90;;;;;;5028004;28;20441;-80
2024/01/06 12:30:40;;;;;;;28.60;22.37;;;1.20;99.90;;;;;;5026936;28;20475;-80
2024/01/06 12:33:10;;;;;;;31.43;22.90;;;1.20;99.90;;;;;;5026877;28;20484;-80
2024/01/06 12:35:40;;;;;;;29.83;25.07;;;1.20;99.90;;;;;;5026769;28;20452;-80
2024/01/06 12:38:10;;;;;;;29.27;22.60;;;1.10;99.90;;;;;;5026476;28;20462;-80
2024/01/06 12:40:40;;;;;;;28.33;20.23;;;1.10;99.90;;;;;;5009024;28;20474;-79
2024/01/06 12:43:09;;;;;;;28.37;20.70;;;1.10;99.90;;;;;;5025691;28;20464;-80
2024/01/06 12:45:37;;;;;;;27.40;21.47;;;1.20;99.90;;;;;;5025203;28;20449;-80
2024/01/06 12:48:07;;;;;;;28.93;22.07;;;1.10;99.90;;;;;;5024783;28;20450;-80
2024/01/06 12:50:36;;;;;;;30.00;21.80;;;1.10;99.90;;;;;;5024872;28;20474;-80
2024/01/06 12:53:04;;;;;;;29.77;23.60;;;1.20;99.90;;;;;;5025918;28;20481;-81